createdAt,value
2022-09-03T00:00:10.439Z,17.71
2022-09-03T00:02:45.766Z,17.67
2022-09-03T00:05:23.637Z,17.65
2022-09-03T00:08:01.190Z,17.62
2022-09-03T00:10:35.937Z,17.52
2022-09-03T00:13:08.646Z,17.48
2022-09-03T00:15:39.041Z,17.41
2022-09-03T00:18:09.934Z,17.37
2022-09-03T00:20:43.121Z,17.37
2022-09-03T00:23:19.519Z,17.39
2022-09-03T00:25:53.700Z,17.39
2022-09-03T00:28:29.843Z,17.44
2022-09-03T00:31:08.787Z,17.48
2022-09-03T00:33:41.099Z,17.47
2022-09-03T00:36:17.962Z,17.45
2022-09-03T00:38:46.765Z,17.40
2022-09-03T00:41:26.494Z,17.35
2022-09-03T00:44:33.457Z,17.31
2022-09-03T00:47:11.980Z,17.26
2022-09-03T00:49:54.788Z,17.16
2022-09-03T00:52:35.207Z,17.06
2022-09-03T00:55:10.487Z,17.04
2022-09-03T00:57:51.049Z,17.02
2022-09-03T01:00:22.624Z,16.98
2022-09-03T01:03:02.473Z,16.97
2022-09-03T01:05:56.547Z,16.98
2022-09-03T01:08:49.120Z,16.88
2022-09-03T01:11:27.490Z,16.85
2022-09-03T01:14:03.633Z,16.80
2022-09-03T01:16:41.676Z,16.71
2022-09-03T01:19:36.050Z,16.69
2022-09-03T01:22:24.808Z,16.68
2022-09-03T01:25:10.798Z,16.73
2022-09-03T01:27:48.736Z,16.78
2022-09-03T01:30:21.056Z,16.76
2022-09-03T01:32:59.173Z,16.80
2022-09-03T01:35:35.262Z,16.80
2022-09-03T01:38:17.038Z,16.87
2022-09-03T01:40:56.251Z,16.89
2022-09-03T01:43:45.505Z,16.93
2022-09-03T01:46:24.793Z,16.88
2022-09-03T01:49:03.232Z,16.87
2022-09-03T01:51:34.282Z,16.87
2022-09-03T01:54:25.404Z,16.85
2022-09-03T01:57:35.165Z,16.82
2022-09-03T02:00:10.768Z,16.84
2022-09-03T02:02:47.398Z,16.85
2022-09-03T02:05:19.712Z,16.92
2022-09-03T02:07:51.852Z,16.94
2022-09-03T02:10:23.443Z,16.96
2022-09-03T02:12:56.833Z,16.98
2022-09-03T02:15:27.087Z,17.00
2022-09-03T02:18:01.726Z,16.98
2022-09-03T02:20:31.130Z,16.95
2022-09-03T02:23:00.624Z,16.99
2022-09-03T02:25:34.065Z,17.03
2022-09-03T02:28:03.519Z,17.06
2022-09-03T02:30:32.981Z,17.04
2022-09-03T02:33:03.088Z,16.94
2022-09-03T02:35:32.367Z,16.92
2022-09-03T02:38:11.669Z,16.96
2022-09-03T02:40:40.645Z,16.91
2022-09-03T02:43:16.687Z,16.83
2022-09-03T02:45:48.864Z,16.83
2022-09-03T02:48:24.322Z,16.84
2022-09-03T02:50:53.466Z,16.60
2022-09-03T02:53:22.800Z,16.51
2022-09-03T02:55:51.608Z,16.58
2022-09-03T02:58:20.106Z,16.62
2022-09-03T03:00:49.469Z,16.58
2022-09-03T03:03:19.696Z,16.59
2022-09-03T03:05:51.604Z,16.51
2022-09-03T03:08:25.103Z,16.44
2022-09-03T03:10:57.170Z,16.43
2022-09-03T03:13:25.932Z,16.41
2022-09-03T03:15:58.065Z,16.30
2022-09-03T03:18:28.305Z,16.25
2022-09-03T03:20:56.769Z,16.25
2022-09-03T03:23:26.093Z,16.22
2022-09-03T03:25:54.425Z,16.23
2022-09-03T03:28:23.836Z,16.26
2022-09-03T03:30:53.004Z,16.22
2022-09-03T03:33:22.684Z,16.27
2022-09-03T03:35:53.912Z,16.21
2022-09-03T03:38:22.318Z,16.17
2022-09-03T03:40:51.156Z,16.21
2022-09-03T03:43:19.575Z,16.20
2022-09-03T03:45:58.229Z,16.22
2022-09-03T03:48:27.556Z,16.22
2022-09-03T03:51:01.921Z,16.27
2022-09-03T03:53:30.782Z,16.33
2022-09-03T03:56:01.208Z,16.39
2022-09-03T03:58:31.324Z,16.43
2022-09-03T04:01:06.587Z,16.41
2022-09-03T04:03:35.803Z,16.32
2022-09-03T04:06:06.399Z,16.30
2022-09-03T04:08:36.742Z,16.25
2022-09-03T04:11:07.115Z,16.20
2022-09-03T04:13:38.698Z,16.13
2022-09-03T04:16:09.926Z,16.12
2022-09-03T04:18:40.270Z,16.19
2022-09-03T04:21:12.387Z,16.12
2022-09-03T04:23:43.237Z,16.20
2022-09-03T04:26:13.397Z,16.23
2022-09-03T04:28:42.469Z,16.10
2022-09-03T04:31:12.984Z,16.11
2022-09-03T04:33:43.730Z,16.10
2022-09-03T04:36:15.310Z,16.08
2022-09-03T04:38:47.140Z,15.99
2022-09-03T04:41:18.188Z,16.05
2022-09-03T04:43:51.540Z,16.04
2022-09-03T04:46:24.498Z,15.97
2022-09-03T04:48:55.067Z,16.01
2022-09-03T04:51:28.638Z,16.12
2022-09-03T04:54:00.186Z,16.15
2022-09-03T04:56:30.230Z,16.18
2022-09-03T04:59:01.680Z,16.19
2022-09-03T05:01:32.303Z,16.16
2022-09-03T05:04:01.848Z,16.04
2022-09-03T05:06:33.250Z,16.03
2022-09-03T05:09:02.766Z,16.03
2022-09-03T05:11:32.108Z,16.07
2022-09-03T05:14:01.724Z,16.02
2022-09-03T05:16:31.505Z,15.97
2022-09-03T05:19:01.601Z,15.93
2022-09-03T05:21:32.144Z,15.92
2022-09-03T05:24:01.782Z,15.96
2022-09-03T05:26:32.663Z,15.95
2022-09-03T05:29:03.004Z,16.03
2022-09-03T05:31:32.531Z,15.98
2022-09-03T05:34:03.950Z,16.02
2022-09-03T05:36:35.671Z,15.99
2022-09-03T05:39:05.974Z,15.97
2022-09-03T05:41:34.899Z,16.03
2022-09-03T05:44:05.710Z,16.09
2022-09-03T05:46:38.858Z,16.20
2022-09-03T05:49:08.877Z,16.22
2022-09-03T05:51:40.394Z,16.15
2022-09-03T05:54:09.583Z,16.18
2022-09-03T05:56:41.413Z,16.24
2022-09-03T05:59:11.616Z,16.25
2022-09-03T06:01:45.830Z,16.34
2022-09-03T06:04:21.285Z,16.42
2022-09-03T06:06:51.127Z,16.46
2022-09-03T06:09:23.506Z,16.46
2022-09-03T06:11:53.946Z,16.48
2022-09-03T06:14:24.169Z,16.52
2022-09-03T06:16:53.086Z,16.47
2022-09-03T06:19:22.394Z,16.48
2022-09-03T06:21:52.398Z,16.51
2022-09-03T06:24:27.876Z,16.63
2022-09-03T06:26:57.687Z,16.74
2022-09-03T06:29:27.330Z,16.77
2022-09-03T06:31:57.043Z,16.90
2022-09-03T06:34:27.161Z,16.92
2022-09-03T06:36:57.955Z,16.96
2022-09-03T06:39:27.432Z,16.94
2022-09-03T06:41:55.962Z,16.92
2022-09-03T06:44:36.083Z,16.95
2022-09-03T06:47:04.425Z,17.02
2022-09-03T06:49:33.298Z,17.05
2022-09-03T06:52:03.595Z,17.07
2022-09-03T06:54:32.706Z,17.17
2022-09-03T06:57:01.068Z,17.27
2022-09-03T06:59:29.773Z,17.43
2022-09-03T07:02:01.318Z,17.50
2022-09-03T07:04:30.472Z,17.55
2022-09-03T07:06:58.933Z,17.55
2022-09-03T07:09:28.780Z,17.50
2022-09-03T07:11:58.132Z,17.50
2022-09-03T07:14:26.959Z,17.46
2022-09-03T07:16:56.022Z,17.60
2022-09-03T07:19:24.466Z,17.62
2022-09-03T07:21:53.597Z,17.70
2022-09-03T07:24:22.425Z,17.81
2022-09-03T07:26:52.502Z,17.83
2022-09-03T07:29:22.048Z,17.77
2022-09-03T07:31:53.060Z,17.73
2022-09-03T07:34:26.665Z,17.76
2022-09-03T07:36:55.906Z,17.80
2022-09-03T07:39:24.341Z,17.85
2022-09-03T07:41:55.324Z,17.80
2022-09-03T07:44:25.150Z,17.82
2022-09-03T07:46:54.167Z,17.86
2022-09-03T07:49:23.012Z,17.89
2022-09-03T07:51:54.329Z,17.90
2022-09-03T07:54:24.008Z,18.03
2022-09-03T07:56:56.415Z,18.13
2022-09-03T07:59:26.233Z,18.22
2022-09-03T08:01:55.030Z,18.29
2022-09-03T08:04:23.569Z,18.38
2022-09-03T08:06:55.654Z,18.52
2022-09-03T08:09:24.643Z,18.57
2022-09-03T08:11:54.521Z,18.73
2022-09-03T08:14:23.215Z,18.91
2022-09-03T08:16:52.660Z,18.98
2022-09-03T08:19:21.972Z,19.00
2022-09-03T08:21:50.466Z,19.14
2022-09-03T08:24:21.297Z,19.20
2022-09-03T08:26:52.440Z,19.21
2022-09-03T08:29:23.105Z,19.26
2022-09-03T08:31:51.902Z,19.20
2022-09-03T08:34:20.942Z,19.23
2022-09-03T08:36:50.386Z,19.41
2022-09-03T08:39:19.282Z,19.50
2022-09-03T08:42:24.308Z,19.69
2022-09-03T08:44:58.600Z,19.80
2022-09-03T08:47:31.511Z,19.86
2022-09-03T08:50:04.381Z,19.95
2022-09-03T08:52:39.431Z,20.01
2022-09-03T08:55:27.378Z,20.07
2022-09-03T08:58:03.430Z,20.04
2022-09-03T09:00:45.898Z,20.12
2022-09-03T09:03:36.376Z,20.07
2022-09-03T09:06:12.697Z,20.05
2022-09-03T09:08:55.018Z,20.09
2022-09-03T09:11:36.030Z,20.15
2022-09-03T09:14:14.403Z,20.16
2022-09-03T09:16:53.228Z,20.26
2022-09-03T09:19:38.842Z,20.31
2022-09-03T09:22:12.083Z,20.38
2022-09-03T09:24:45.641Z,20.48
2022-09-03T09:27:17.301Z,20.52
2022-09-03T09:29:49.820Z,20.63
2022-09-03T09:32:22.307Z,20.75
2022-09-03T09:34:52.663Z,20.87
2022-09-03T09:37:22.081Z,21.01
2022-09-03T09:39:58.838Z,21.17
2022-09-03T09:42:31.010Z,21.19
2022-09-03T09:45:10.741Z,21.53
2022-09-03T09:47:41.649Z,21.80
2022-09-03T09:50:24.939Z,22.03
2022-09-03T09:53:04.341Z,21.96
2022-09-03T09:55:33.505Z,21.87
2022-09-03T09:58:14.551Z,21.89
2022-09-03T10:00:43.791Z,21.88
2022-09-03T10:03:21.874Z,22.02
2022-09-03T10:06:02.481Z,22.16
2022-09-03T10:08:31.058Z,22.25
2022-09-03T10:11:00.346Z,22.33
2022-09-03T10:13:37.255Z,22.64
2022-09-03T10:16:18.712Z,22.82
2022-09-03T10:18:56.936Z,22.94
2022-09-03T10:21:33.446Z,23.04
2022-09-03T10:24:16.114Z,23.36
2022-09-03T10:26:46.438Z,23.32
2022-09-03T10:29:19.470Z,23.81
2022-09-03T10:32:01.748Z,24.04
2022-09-03T10:34:39.443Z,24.21
2022-09-03T10:37:19.381Z,24.48
2022-09-03T10:40:09.355Z,24.73
2022-09-03T10:42:47.178Z,24.84
2022-09-03T10:45:21.543Z,24.85
2022-09-03T10:48:22.003Z,25.15
2022-09-03T10:50:56.772Z,25.06
2022-09-03T10:53:42.674Z,25.09
2022-09-03T10:56:17.703Z,25.20
2022-09-03T10:59:09.929Z,25.35
2022-09-03T11:01:49.240Z,25.69
2022-09-03T11:04:30.179Z,25.72
2022-09-03T11:07:10.471Z,25.57
2022-09-03T11:09:42.808Z,25.51
2022-09-03T11:12:17.796Z,25.53
2022-09-03T11:14:54.323Z,25.48
2022-09-03T11:17:27.652Z,25.30
2022-09-03T11:20:05.305Z,25.21
2022-09-03T11:22:36.209Z,25.14
2022-09-03T11:25:08.549Z,25.19
2022-09-03T11:27:56.801Z,25.02
2022-09-03T11:30:30.643Z,24.75
2022-09-03T11:33:02.410Z,24.57
2022-09-03T11:35:41.745Z,24.47
2022-09-03T11:38:25.237Z,24.44
2022-09-03T11:41:01.724Z,24.43
2022-09-03T11:43:33.388Z,24.49
2022-09-03T11:46:12.027Z,24.64
2022-09-03T11:48:45.073Z,24.64
2022-09-03T11:51:22.691Z,24.77
2022-09-03T11:53:58.034Z,24.63
2022-09-03T11:56:27.119Z,24.71
2022-09-03T11:59:04.512Z,24.68
2022-09-03T12:01:35.480Z,24.73
2022-09-03T12:04:07.974Z,24.84
2022-09-03T12:07:32.999Z,24.92
2022-09-03T12:10:28.277Z,25.11
2022-09-03T12:13:08.119Z,25.66
2022-09-03T12:15:56.077Z,25.64
2022-09-03T12:18:28.547Z,25.74
2022-09-03T12:21:05.236Z,25.86
2022-09-03T12:23:37.006Z,25.71
2022-09-03T12:26:09.334Z,25.34
2022-09-03T12:28:41.651Z,25.12
2022-09-03T12:31:25.124Z,25.07
2022-09-03T12:33:56.844Z,25.11
2022-09-03T12:36:27.386Z,24.93
2022-09-03T12:39:13.374Z,24.88
2022-09-03T12:41:59.103Z,24.96
2022-09-03T12:44:31.413Z,24.94
2022-09-03T12:49:59.780Z,25.21
2022-09-03T12:52:33.508Z,25.37
2022-09-03T12:55:07.620Z,25.63
2022-09-03T12:57:42.134Z,25.94
2022-09-03T13:00:15.746Z,26.71
2022-09-03T13:02:53.135Z,27.11
2022-09-03T13:05:26.366Z,27.44
2022-09-03T13:07:59.621Z,27.08
2022-09-03T13:10:31.055Z,26.76
2022-09-03T13:13:03.953Z,26.50
2022-09-03T13:15:32.406Z,26.38
2022-09-03T13:18:27.640Z,26.39
2022-09-03T13:21:12.351Z,26.31
2022-09-03T13:23:56.374Z,26.37
2022-09-03T13:26:33.819Z,26.24
2022-09-03T13:29:26.372Z,26.01
2022-09-03T13:32:02.773Z,25.83
2022-09-03T13:34:39.397Z,25.82
2022-09-03T13:37:21.151Z,25.76
2022-09-03T13:39:57.349Z,25.91
2022-09-03T13:42:33.583Z,26.15
2022-09-03T13:45:16.131Z,26.39
2022-09-03T13:48:01.204Z,26.62
2022-09-03T13:50:35.755Z,26.97
2022-09-03T13:53:07.671Z,27.24
2022-09-03T13:55:45.401Z,27.36
2022-09-03T13:58:22.812Z,27.40
2022-09-03T14:01:06.549Z,27.40
2022-09-03T14:03:48.554Z,27.41
2022-09-03T14:06:30.978Z,27.46
2022-09-03T14:09:07.595Z,27.49
2022-09-03T14:11:48.472Z,27.37
2022-09-03T14:14:29.910Z,27.28
2022-09-03T14:17:07.952Z,26.95
2022-09-03T14:19:41.769Z,26.66
2022-09-03T14:22:17.121Z,26.58
2022-09-03T14:24:50.214Z,26.50
2022-09-03T14:27:25.931Z,26.43
2022-09-03T14:30:00.341Z,26.40
2022-09-03T14:32:37.847Z,26.37
2022-09-03T14:35:29.423Z,26.20
2022-09-03T14:38:21.473Z,26.00
2022-09-03T14:41:04.363Z,25.84
2022-09-03T14:43:54.874Z,25.77
2022-09-03T14:46:42.431Z,25.74
2022-09-03T14:49:24.882Z,25.67
2022-09-03T14:52:18.530Z,25.57
2022-09-03T14:55:08.059Z,25.46
2022-09-03T14:58:11.309Z,25.39
2022-09-03T15:00:53.306Z,25.24
2022-09-03T15:03:59.809Z,25.13
2022-09-03T15:06:43.698Z,25.01
2022-09-03T15:09:32.562Z,24.90
2022-09-03T15:12:08.472Z,24.76
2022-09-03T15:14:44.727Z,24.66
2022-09-03T15:17:36.132Z,24.58
2022-09-03T15:20:19.500Z,24.49
2022-09-03T15:23:25.711Z,24.33
2022-09-03T15:26:17.548Z,24.27
2022-09-03T15:28:59.106Z,24.19
2022-09-03T15:31:40.339Z,24.16
2022-09-03T15:34:20.552Z,24.06
2022-09-03T15:36:54.106Z,24.05
2022-09-03T15:39:28.686Z,23.98
2022-09-03T15:42:00.273Z,23.96
2022-09-03T15:44:38.623Z,23.77
2022-09-03T15:47:14.208Z,23.57
2022-09-03T15:49:54.594Z,23.44
2022-09-03T15:52:31.746Z,23.29
2022-09-03T15:55:11.523Z,23.14
2022-09-03T15:57:49.774Z,23.14
2022-09-03T16:00:22.107Z,22.70
2022-09-03T16:02:57.857Z,22.47
2022-09-03T16:05:39.798Z,22.46
2022-09-03T16:08:19.009Z,22.34
2022-09-03T16:10:59.440Z,22.26
2022-09-03T16:13:41.284Z,22.16
2022-09-03T16:16:15.206Z,22.08
2022-09-03T16:18:55.339Z,21.94
2022-09-03T16:21:30.299Z,21.77
2022-09-03T16:24:04.605Z,21.60
2022-09-03T16:26:38.972Z,21.41
2022-09-03T16:29:10.780Z,21.24
2022-09-03T16:31:58.051Z,21.06
2022-09-03T16:34:35.124Z,20.89
2022-09-03T16:37:13.482Z,20.57
2022-09-03T16:39:54.475Z,20.48
2022-09-03T16:42:33.868Z,20.52
2022-09-03T16:45:14.358Z,20.66
2022-09-03T16:47:58.319Z,20.81
2022-09-03T16:50:41.244Z,21.01
2022-09-03T16:53:16.570Z,21.32
2022-09-03T16:56:01.280Z,21.63
2022-09-03T16:58:38.821Z,21.86
2022-09-03T17:01:22.274Z,21.95
2022-09-03T17:04:32.159Z,22.15
2022-09-03T17:07:15.184Z,22.36
2022-09-03T17:09:56.696Z,22.31
2022-09-03T17:12:32.076Z,22.18
2022-09-03T17:15:22.546Z,22.11
2022-09-03T17:18:09.324Z,22.05
2022-09-03T17:20:49.750Z,21.95
2022-09-03T17:23:49.934Z,21.85
2022-09-03T17:26:30.295Z,21.66
2022-09-03T17:29:10.011Z,21.41
2022-09-03T17:31:51.944Z,21.29
2022-09-03T17:34:34.665Z,21.18
2022-09-03T17:37:14.503Z,21.12
2022-09-03T17:40:00.671Z,21.06
2022-09-03T17:42:34.123Z,21.02
2022-09-03T17:45:16.228Z,20.99
2022-09-03T17:48:13.467Z,21.01
2022-09-03T17:50:51.965Z,20.93
2022-09-03T17:53:26.448Z,20.94
2022-09-03T17:55:59.579Z,20.93
2022-09-03T17:58:34.608Z,20.93
2022-09-03T18:01:16.223Z,20.91
2022-09-03T18:03:54.311Z,20.91
2022-09-03T18:06:33.472Z,20.84
2022-09-03T18:09:07.817Z,20.81
2022-09-03T18:11:39.535Z,20.72
2022-09-03T18:14:21.678Z,20.75
2022-09-03T18:16:56.596Z,20.74
2022-09-03T18:19:53.981Z,20.65
2022-09-03T18:22:45.751Z,20.73
2022-09-03T18:25:34.124Z,20.71
2022-09-03T18:28:26.237Z,20.71
2022-09-03T18:31:12.969Z,20.69
2022-09-03T18:33:58.764Z,20.69
2022-09-03T18:36:46.236Z,20.64
2022-09-03T18:39:40.555Z,20.62
2022-09-03T18:42:36.631Z,20.54
2022-09-03T18:45:56.360Z,20.47
2022-09-03T18:48:50.754Z,20.41
2022-09-03T18:51:46.077Z,20.40
2022-09-03T18:55:06.812Z,20.31
2022-09-03T18:58:04.016Z,20.17
2022-09-03T19:00:55.336Z,20.20
2022-09-03T19:03:55.541Z,20.14
2022-09-03T19:06:51.611Z,20.15
2022-09-03T19:09:54.506Z,20.13
2022-09-03T19:12:59.628Z,20.00
2022-09-03T19:15:50.105Z,19.93
2022-09-03T19:18:49.622Z,19.88
2022-09-03T19:21:41.715Z,19.79
2022-09-03T19:24:27.933Z,19.75
2022-09-03T19:27:51.782Z,19.71
2022-09-03T19:30:37.061Z,19.60
2022-09-03T19:33:30.592Z,19.59
2022-09-03T19:36:26.911Z,19.49
2022-09-03T19:39:27.219Z,19.29
2022-09-03T19:42:19.796Z,19.19
2022-09-03T19:45:18.653Z,19.05
2022-09-03T19:48:17.329Z,18.99
2022-09-03T19:51:16.442Z,18.95
2022-09-03T19:54:03.754Z,18.88
2022-09-03T19:56:49.703Z,18.85
2022-09-03T19:59:38.384Z,18.81
2022-09-03T20:02:25.860Z,18.81
2022-09-03T20:05:17.256Z,18.83
2022-09-03T20:08:06.611Z,18.86
2022-09-03T20:10:36.640Z,18.78
2022-09-03T20:13:10.132Z,18.75
2022-09-03T20:15:48.401Z,18.77
2022-09-03T20:18:32.673Z,18.70
2022-09-03T20:21:11.398Z,18.70
2022-09-03T20:23:49.128Z,18.61
2022-09-03T20:26:32.630Z,18.54
2022-09-03T20:29:24.187Z,18.51
2022-09-03T20:31:59.247Z,18.50
2022-09-03T20:34:42.201Z,18.51
2022-09-03T20:37:25.171Z,18.50
2022-09-03T20:40:11.755Z,18.49
2022-09-03T20:43:01.928Z,18.48
2022-09-03T20:45:43.736Z,18.45
2022-09-03T20:48:23.404Z,18.38
2022-09-03T20:51:01.441Z,18.37
2022-09-03T20:54:08.806Z,18.30
2022-09-03T20:56:49.900Z,18.25
2022-09-03T20:59:29.406Z,18.17
2022-09-03T21:02:05.797Z,18.09
2022-09-03T21:04:49.809Z,18.06
2022-09-03T21:07:27.948Z,18.08
2022-09-03T21:10:03.754Z,18.09
2022-09-03T21:12:43.876Z,18.12
2022-09-03T21:15:18.992Z,18.13
2022-09-03T21:17:57.462Z,18.12
2022-09-03T21:20:35.082Z,18.16
2022-09-03T21:23:21.456Z,18.16
2022-09-03T21:25:59.863Z,18.09
2022-09-03T21:28:37.279Z,18.09
2022-09-03T21:31:15.525Z,18.04
2022-09-03T21:33:48.610Z,18.00
2022-09-03T21:36:31.910Z,18.01
2022-09-03T21:39:08.015Z,17.98
2022-09-03T21:41:41.606Z,17.97
2022-09-03T21:44:18.786Z,17.94
2022-09-03T21:46:56.119Z,17.89
2022-09-03T21:49:30.345Z,17.87
2022-09-03T21:52:04.086Z,17.87
2022-09-03T21:54:56.907Z,17.88
2022-09-03T21:57:35.978Z,17.94
2022-09-03T22:00:18.149Z,17.91
2022-09-03T22:02:48.033Z,17.90
2022-09-03T22:05:18.477Z,17.97
2022-09-03T22:08:05.738Z,17.91
2022-09-03T22:10:45.566Z,17.88
2022-09-03T22:13:22.661Z,17.91
2022-09-03T22:15:52.505Z,17.87
2022-09-03T22:18:28.655Z,17.84
2022-09-03T22:21:04.446Z,17.82
2022-09-03T22:23:44.087Z,17.84
2022-09-03T22:26:23.993Z,17.83
2022-09-03T22:29:10.191Z,17.80
2022-09-03T22:31:53.939Z,17.76
2022-09-03T22:34:37.553Z,17.71
2022-09-03T22:37:11.539Z,17.67
2022-09-03T22:39:47.038Z,17.58
2022-09-03T22:42:31.455Z,17.61
2022-09-03T22:45:40.401Z,17.59
2022-09-03T22:48:21.211Z,17.58
2022-09-03T22:50:56.407Z,17.55
2022-09-03T22:53:38.741Z,17.55
2022-09-03T22:56:10.944Z,17.59
2022-09-03T22:58:46.333Z,17.61
2022-09-03T23:01:22.224Z,17.50
2022-09-03T23:03:58.391Z,17.50
2022-09-03T23:06:32.746Z,17.48
2022-09-03T23:09:05.923Z,17.46
2022-09-03T23:11:42.618Z,17.49
2022-09-03T23:14:14.552Z,17.48
2022-09-03T23:16:51.695Z,17.45
2022-09-03T23:19:36.515Z,17.37
2022-09-03T23:22:10.688Z,17.30
2022-09-03T23:24:44.778Z,17.29
2022-09-03T23:27:18.823Z,17.20
2022-09-03T23:29:54.139Z,17.20
2022-09-03T23:32:22.747Z,17.19
2022-09-03T23:34:51.907Z,17.22
2022-09-03T23:37:34.293Z,17.25
2022-09-03T23:40:16.462Z,17.23
2022-09-03T23:43:06.069Z,17.15
2022-09-03T23:45:47.322Z,17.13
2022-09-03T23:48:26.975Z,17.05
2022-09-03T23:51:05.017Z,17.03
2022-09-03T23:53:45.179Z,17.08
2022-09-03T23:56:32.064Z,17.07
2022-09-03T23:59:13.478Z,16.98
